Birch Tree, MO (65438)

10:42 AM CDT on August 01, 2014 (GMT -0500)
West Plains Municipal (KUNO) Elev 1227 ft | 36.88 °N, 91.91 °W | Change Station

Current weather conditions updated 10 minutes ago

Overcast
Overcast
70 °F
Feels Like 70 °F
N
4
Wind Variable Wind from WSW

Today is forecast to be Warmer than yesterday. A few thunderstorms possible.

Today
High -- | Low -- °F
--% Chance of Precip.
Yesterday
High -- | Low -- °F
Precip. -- in
6:11 AM 8:12 PM
Waxing Crescent, 27% visible
Pressure 30.14 in
Visibility 10.0 miles
Clouds Overcast 1000 ft
Dew Point 63 °F
Humidity 78%
Rainfall 0.00 in
Snow Depth Not available.
UV 2 out of 12
Pollen 6.60 out of 12
Air Quality Not available.
Flu Activity Not available.
SPECI KUNO 011532Z AUTO 25003KT 10SM OVC010 21/17 A3014 RMK AO2 T02110172

More Conditions Fewer Conditions

Pressure 30.14 in
Visibility 10.0 miles
Clouds Overcast 1000 ft
Dew Point 63 °F
Humidity 78%
Rainfall 0.00 in
Snow Depth Not available.
UV 2 out of 12
Pollen 6.60 out of 12
Air Quality Not available.
Flu Activity Not available.
SPECI KUNO 011532Z AUTO 25003KT 10SM OVC010 21/17 A3014 RMK AO2 T02110172

More Conditions Fewer Conditions

10-Day Weather Forecast

Almanac

Astronomy

Aug. 01, 2014 Rise Set
Actual Time 6:11 AM CDT 8:12 PM CDT
Civil Twilight 5:42 AM CDT 8:41 PM CDT
Nautical Twilight 5:07 AM CDT 9:16 PM CDT
Astronomical Twilight 4:30 AM CDT 9:53 PM CDT
Moon 11:26 AM CDT 11:07 PM CDT
Length of Visible Light 14h 58m
Length of Day
14h 01m
Tomorrow will be 1m 46s shorter.
Waxing Crescent, 27% of the Moon is Illuminated
Today
Waxing Crescent
Aug 3
First Quarter
Aug 10
Full
Aug 17
Last Quarter
Aug 25
New

Today's Extremes

State Highs State Lows

Community

WunderPhotos

Upload Photos

1,739,618 photos uploaded!

Nearby

Snow Depth

Station Depth Elevation
No new snow has been reported.

Earthquake Activity

City Distance Mag. Time & Date
No recent earthquake activity has been reported nearby.
Minimum magnitude displayed is 2.5.

Coastal Water Temperatures

Place Temperature
No Stations Reporting

Nearby Weather Stations

There are no personal weather stations in this area.